Time;durP1;ratioP1;P1;durP2;ratioP2;P2;SDS_P1;SDS_P2;PMS_P1;PMS_P2;Temp;Humidity;BMP_temperature;BMP_pressure;BME280_temperature;BME280_humidity;BME280_pressure;Samples;Min_cycle;Max_cycle;Signal;HPM_P1;HPM_P2
2023/08/02 00:00:51;;;;;;;4.60;1.52;;;16.30;99.90;;;;;;4986805;28;20038;-79
2023/08/02 00:03:17;;;;;;;5.50;1.92;;;16.30;99.90;;;;;;4993930;28;20398;-79
2023/08/02 00:05:51;;;;;;;4.00;1.55;;;16.20;99.90;;;;;;4994882;28;20111;-78
2023/08/02 00:08:17;;;;;;;4.20;1.92;;;16.20;99.90;;;;;;4987734;28;20470;-79
2023/08/02 00:10:42;;;;;;;6.13;2.00;;;16.20;99.90;;;;;;5013680;28;20032;-79
2023/08/02 00:13:08;;;;;;;3.85;1.65;;;16.10;99.90;;;;;;4995394;28;20042;-79
2023/08/02 00:15:37;;;;;;;2.83;1.77;;;16.10;99.90;;;;;;4983655;28;20444;-78
2023/08/02 00:18:03;;;;;;;4.90;1.88;;;16.00;99.90;;;;;;5009870;28;20036;-79
2023/08/02 00:20:28;;;;;;;6.47;2.35;;;16.00;99.90;;;;;;4995118;28;20026;-79
2023/08/02 00:22:54;;;;;;;5.78;2.03;;;15.90;99.90;;;;;;4996913;28;20427;-79
2023/08/02 00:25:19;;;;;;;4.70;1.50;;;16.00;99.90;;;;;;5010227;28;20347;-79
2023/08/02 00:27:45;;;;;;;8.27;1.75;;;15.90;99.90;;;;;;4994636;28;20029;-79
2023/08/02 00:30:11;;;;;;;8.20;1.60;;;16.00;99.90;;;;;;5006455;28;20034;-79
2023/08/02 00:32:43;;;;;;;4.68;1.20;;;15.90;99.90;;;;;;4993449;28;20385;-79
2023/08/02 00:35:09;;;;;;;6.03;1.95;;;16.00;99.90;;;;;;4976536;28;20036;-79
2023/08/02 00:37:35;;;;;;;4.55;1.70;;;16.00;99.90;;;;;;5006009;28;20034;-79
2023/08/02 00:40:00;;;;;;;2.13;1.42;;;15.90;99.90;;;;;;4993878;28;20168;-78
2023/08/02 00:42:26;;;;;;;10.95;2.13;;;15.90;99.90;;;;;;5025955;28;20040;-78
2023/08/02 00:44:51;;;;;;;7.25;2.30;;;15.90;99.90;;;;;;4979303;28;20037;-79
2023/08/02 00:47:17;;;;;;;5.85;1.90;;;15.90;99.90;;;;;;4990753;28;20040;-79
2023/08/02 00:49:43;;;;;;;7.50;1.75;;;15.80;99.90;;;;;;4977704;28;20039;-79
2023/08/02 00:52:09;;;;;;;6.57;1.50;;;15.70;99.90;;;;;;5007026;28;20038;-79
2023/08/02 00:54:35;;;;;;;4.75;1.40;;;15.70;99.90;;;;;;4976644;28;20028;-79
2023/08/02 00:57:00;;;;;;;5.72;2.05;;;15.70;99.90;;;;;;4979681;28;20048;-79
2023/08/02 00:59:26;;;;;;;7.63;2.03;;;15.60;99.90;;;;;;4974518;28;20546;-79
2023/08/02 01:01:52;;;;;;;3.63;1.58;;;15.50;99.90;;;;;;5008916;28;20033;-79
2023/08/02 01:04:17;;;;;;;9.75;2.03;;;15.40;99.90;;;;;;5006692;28;20052;-79
2023/08/02 01:06:46;;;;;;;8.38;1.95;;;15.40;99.90;;;;;;5005641;28;20029;-79
2023/08/02 01:09:17;;;;;;;6.38;1.77;;;15.40;99.90;;;;;;4989834;28;20038;-79
2023/08/02 01:12:09;;;;;;;7.40;1.90;;;15.40;99.90;;;;;;4988223;28;20171;-79
2023/08/02 01:14:37;;;;;;;5.25;1.60;;;15.30;99.90;;;;;;4976992;28;20037;-79
2023/08/02 01:17:03;;;;;;;4.53;1.48;;;15.30;99.90;;;;;;4991321;28;20056;-79
2023/08/02 01:19:28;;;;;;;4.28;2.00;;;15.40;99.90;;;;;;4994692;28;20488;-78
2023/08/02 01:21:54;;;;;;;7.20;1.70;;;15.30;99.90;;;;;;5009588;28;20029;-78
2023/08/02 01:24:19;;;;;;;8.05;2.20;;;15.30;99.90;;;;;;4991658;28;20572;-79
2023/08/02 01:26:47;;;;;;;4.63;1.60;;;15.30;99.90;;;;;;4992793;28;20039;-79
2023/08/02 01:29:14;;;;;;;6.07;1.70;;;15.20;99.90;;;;;;5002409;28;20037;-79
2023/08/02 01:31:40;;;;;;;3.92;2.13;;;15.30;99.90;;;;;;4976099;28;20064;-79
2023/08/02 01:34:05;;;;;;;3.08;1.60;;;15.20;99.90;;;;;;4976991;28;20128;-78
2023/08/02 01:36:32;;;;;;;4.03;1.60;;;15.20;99.90;;;;;;4986893;28;20524;-79
2023/08/02 01:38:58;;;;;;;6.55;1.83;;;15.20;99.90;;;;;;4993580;28;20037;-79
2023/08/02 01:41:23;;;;;;;4.85;1.70;;;15.20;99.90;;;;;;4981654;28;20033;-79
2023/08/02 01:43:49;;;;;;;6.03;1.65;;;15.20;99.90;;;;;;5006044;28;20083;-79
2023/08/02 01:46:14;;;;;;;7.18;3.38;;;15.10;99.90;;;;;;4991550;28;20535;-79
2023/08/02 01:48:40;;;;;;;3.85;1.60;;;15.10;99.90;;;;;;5001903;28;20037;-79
2023/08/02 01:51:06;;;;;;;7.43;1.55;;;15.10;99.90;;;;;;4996478;28;20073;-79
2023/08/02 01:53:31;;;;;;;4.63;1.80;;;15.00;99.90;;;;;;5005509;28;20417;-78
2023/08/02 01:55:57;;;;;;;5.65;1.90;;;15.20;99.90;;;;;;5021078;28;20041;-79
2023/08/02 01:58:22;;;;;;;4.15;1.52;;;15.10;99.90;;;;;;4975195;28;20040;-79
2023/08/02 02:00:48;;;;;;;4.00;1.67;;;15.10;99.90;;;;;;4996317;28;20034;-78
2023/08/02 02:03:13;;;;;;;8.52;1.77;;;15.10;99.90;;;;;;5006571;28;20048;-78
2023/08/02 02:05:39;;;;;;;5.28;2.13;;;15.00;99.90;;;;;;5023886;28;20553;-78
2023/08/02 02:08:04;;;;;;;11.38;2.50;;;15.00;99.90;;;;;;4975761;28;20038;-79
2023/08/02 02:10:30;;;;;;;12.18;2.25;;;15.00;99.90;;;;;;4980546;28;20117;-79
2023/08/02 02:12:56;;;;;;;5.70;2.55;;;15.10;99.90;;;;;;5005128;28;20030;-78
2023/08/02 02:15:21;;;;;;;3.67;2.03;;;15.00;99.90;;;;;;4990926;28;20029;-78
2023/08/02 02:17:47;;;;;;;6.32;2.15;;;15.00;99.90;;;;;;5006578;28;20413;-79
2023/08/02 02:20:13;;;;;;;3.20;1.40;;;15.10;99.90;;;;;;5007387;28;20028;-79
2023/08/02 02:22:38;;;;;;;4.90;2.15;;;15.10;99.90;;;;;;4991640;28;20029;-79
2023/08/02 02:25:04;;;;;;;4.43;1.75;;;15.10;99.90;;;;;;4992202;28;20030;-79
2023/08/02 02:27:30;;;;;;;5.07;1.92;;;15.20;99.90;;;;;;5006891;28;20049;-79
2023/08/02 02:29:55;;;;;;;4.22;2.00;;;15.20;99.90;;;;;;4991302;28;20443;-77
2023/08/02 02:32:21;;;;;;;7.13;1.85;;;15.20;99.90;;;;;;4991451;28;20029;-78
2023/08/02 02:34:46;;;;;;;5.80;1.88;;;15.20;99.90;;;;;;4989080;28;20025;-79
2023/08/02 02:37:12;;;;;;;5.72;2.08;;;15.20;99.90;;;;;;4972639;28;20034;-80
2023/08/02 02:39:38;;;;;;;2.90;1.65;;;15.20;99.90;;;;;;4991831;28;20079;-80
2023/08/02 02:42:03;;;;;;;4.95;1.40;;;15.30;99.90;;;;;;4979510;28;20049;-79
2023/08/02 02:44:44;;;;;;;7.78;2.00;;;15.30;99.90;;;;;;4988637;28;20034;-79
2023/08/02 02:47:10;;;;;;;5.68;2.00;;;15.40;99.90;;;;;;5006408;28;20034;-79
2023/08/02 02:49:36;;;;;;;7.13;2.00;;;15.30;99.90;;;;;;4996098;28;20040;-79
2023/08/02 02:52:02;;;;;;;7.00;2.42;;;15.40;99.90;;;;;;4972550;28;20038;-79
2023/08/02 02:54:27;;;;;;;4.20;2.13;;;15.40;99.90;;;;;;4991712;28;20037;-79
2023/08/02 02:56:53;;;;;;;5.78;2.15;;;15.50;99.90;;;;;;4992573;28;20046;-79
2023/08/02 02:59:18;;;;;;;6.72;1.65;;;15.40;99.90;;;;;;4997151;28;20084;-79
2023/08/02 03:01:44;;;;;;;5.95;1.95;;;15.50;99.90;;;;;;4993919;28;20029;-79
2023/08/02 03:04:09;;;;;;;7.05;2.28;;;15.50;99.90;;;;;;4981958;28;20505;-79
2023/08/02 03:06:35;;;;;;;7.03;2.42;;;15.50;99.90;;;;;;4993055;28;20104;-80
2023/08/02 03:09:00;;;;;;;4.97;1.90;;;15.40;99.90;;;;;;4989399;28;20056;-79
2023/08/02 03:11:26;;;;;;;5.20;2.13;;;15.50;99.90;;;;;;4979910;28;20025;-79
2023/08/02 03:13:52;;;;;;;7.13;2.65;;;15.50;99.90;;;;;;5015244;28;20034;-79
2023/08/02 03:16:17;;;;;;;4.35;1.52;;;15.50;99.90;;;;;;4976989;28;20041;-80
2023/08/02 03:18:43;;;;;;;3.25;2.05;;;15.50;99.90;;;;;;5004125;28;20041;-79
2023/08/02 03:21:08;;;;;;;3.95;1.77;;;15.50;99.90;;;;;;5026195;28;20038;-80
2023/08/02 03:23:34;;;;;;;8.10;2.33;;;15.50;99.90;;;;;;4982542;28;20083;-79
2023/08/02 03:26:00;;;;;;;7.57;2.15;;;15.60;99.90;;;;;;4977106;28;20437;-80
2023/08/02 03:28:25;;;;;;;7.38;2.97;;;15.50;99.90;;;;;;4976107;28;20384;-79
2023/08/02 03:30:54;;;;;;;5.22;2.17;;;15.70;99.90;;;;;;4989172;28;20033;-79
2023/08/02 03:33:19;;;;;;;10.38;2.35;;;15.60;99.90;;;;;;4987561;28;20049;-80
2023/08/02 03:35:45;;;;;;;5.50;1.75;;;15.50;99.90;;;;;;5000948;28;20583;-80
2023/08/02 03:38:10;;;;;;;4.15;2.00;;;15.50;99.90;;;;;;5009349;28;20041;-79
2023/08/02 03:40:36;;;;;;;5.47;1.90;;;15.50;99.90;;;;;;4995888;28;20141;-80
2023/08/02 03:43:02;;;;;;;3.83;2.00;;;15.50;99.90;;;;;;4989933;28;20084;-78
2023/08/02 03:45:27;;;;;;;6.43;1.85;;;15.50;99.90;;;;;;5008840;28;20105;-80
2023/08/02 03:47:53;;;;;;;8.15;2.20;;;15.50;99.90;;;;;;5000603;28;20041;-80
2023/08/02 03:50:18;;;;;;;6.80;1.70;;;15.70;99.90;;;;;;4991790;28;20037;-79
2023/08/02 03:52:44;;;;;;;7.28;2.05;;;15.60;99.90;;;;;;4977624;28;20586;-80
2023/08/02 03:55:09;;;;;;;4.43;2.10;;;15.50;99.90;;;;;;4990127;28;20032;-79
2023/08/02 03:57:35;;;;;;;4.53;1.80;;;15.60;99.90;;;;;;4992225;28;20037;-79
2023/08/02 04:00:00;;;;;;;4.43;1.90;;;15.60;99.90;;;;;;5007201;28;20033;-79
2023/08/02 04:02:27;;;;;;;4.18;1.65;;;15.50;99.90;;;;;;5008703;28;20464;-79
2023/08/02 04:04:52;;;;;;;4.90;1.80;;;15.70;99.90;;;;;;4990627;28;20040;-79
2023/08/02 04:07:18;;;;;;;3.88;1.85;;;15.70;99.90;;;;;;4989490;28;20041;-80
2023/08/02 04:09:44;;;;;;;4.40;2.17;;;15.70;99.90;;;;;;4993814;28;20037;-79
2023/08/02 04:12:09;;;;;;;3.90;1.75;;;15.70;99.90;;;;;;4992438;28;20991;-80
2023/08/02 04:14:35;;;;;;;4.82;1.85;;;15.70;99.90;;;;;;4979263;28;20025;-80
2023/08/02 04:17:00;;;;;;;6.35;2.13;;;15.70;99.90;;;;;;4991977;28;20038;-80
2023/08/02 04:19:26;;;;;;;3.58;1.60;;;15.60;99.90;;;;;;4995282;28;20040;-79
2023/08/02 04:21:51;;;;;;;7.10;1.80;;;15.70;99.90;;;;;;4977564;28;20056;-80
2023/08/02 04:24:17;;;;;;;3.00;1.65;;;15.70;99.90;;;;;;5005963;28;20435;-80
2023/08/02 04:26:42;;;;;;;4.30;1.80;;;15.80;99.90;;;;;;5009576;28;20044;-79
2023/08/02 04:29:08;;;;;;;3.33;1.60;;;15.70;99.90;;;;;;4976447;28;20044;-80
2023/08/02 04:31:34;;;;;;;3.10;1.45;;;15.70;99.90;;;;;;4982386;28;20029;-79
2023/08/02 04:33:59;;;;;;;4.55;1.63;;;15.80;99.90;;;;;;5005462;28;20721;-80
2023/08/02 04:36:25;;;;;;;4.13;1.42;;;15.80;99.90;;;;;;4975182;28;20033;-79
2023/08/02 04:38:52;;;;;;;3.47;1.40;;;15.80;99.90;;;;;;5007583;28;20060;-80
2023/08/02 04:41:18;;;;;;;1.85;1.40;;;15.80;99.90;;;;;;4986622;28;20044;-79
2023/08/02 04:43:46;;;;;;;3.45;1.77;;;15.80;99.90;;;;;;4976685;28;20033;-79
2023/08/02 04:46:11;;;;;;;7.07;1.52;;;15.80;99.90;;;;;;5007978;28;20034;-80
2023/08/02 04:48:37;;;;;;;4.45;1.75;;;15.80;99.90;;;;;;5008171;28;20049;-80
2023/08/02 04:51:07;;;;;;;3.50;1.60;;;15.80;99.90;;;;;;5009270;28;20121;-79
2023/08/02 04:53:33;;;;;;;7.82;2.05;;;15.80;99.90;;;;;;4995796;28;20037;-79
2023/08/02 04:55:58;;;;;;;1.95;1.10;;;15.90;99.90;;;;;;4996645;28;20189;-79
2023/08/02 04:58:24;;;;;;;3.53;1.30;;;15.90;99.90;;;;;;4982107;28;20459;-80
2023/08/02 05:00:50;;;;;;;4.68;1.60;;;15.90;99.90;;;;;;4974613;28;20121;-79
2023/08/02 05:03:15;;;;;;;4.65;2.00;;;16.00;99.90;;;;;;4980847;28;20036;-79
2023/08/02 05:05:41;;;;;;;5.32;1.77;;;16.00;99.90;;;;;;4979199;28;20038;-80
2023/08/02 05:08:06;;;;;;;3.88;1.52;;;16.00;99.90;;;;;;4995684;28;20132;-79
2023/08/02 05:10:33;;;;;;;8.63;1.88;;;16.10;99.90;;;;;;4991222;28;20413;-80
2023/08/02 05:12:58;;;;;;;2.72;1.60;;;16.10;99.90;;;;;;4996339;28;20040;-79
2023/08/02 05:15:24;;;;;;;5.03;1.77;;;16.10;99.90;;;;;;4978873;28;20033;-80
2023/08/02 05:17:50;;;;;;;3.65;1.70;;;16.10;99.90;;;;;;5008975;28;20093;-80
2023/08/02 05:20:15;;;;;;;3.70;2.20;;;16.20;99.90;;;;;;5007275;28;20030;-80
2023/08/02 05:22:41;;;;;;;3.83;1.70;;;16.20;99.90;;;;;;4976178;28;20064;-80
2023/08/02 05:25:07;;;;;;;3.45;1.75;;;16.20;99.90;;;;;;4984640;28;20025;-80
2023/08/02 05:27:32;;;;;;;4.40;1.70;;;16.30;99.90;;;;;;4985468;28;20040;-80
2023/08/02 05:29:58;;;;;;;3.35;1.98;;;16.30;99.90;;;;;;4996530;28;20033;-80
2023/08/02 05:32:23;;;;;;;3.03;1.73;;;16.40;99.90;;;;;;5007684;28;20067;-79
2023/08/02 05:34:49;;;;;;;4.72;2.38;;;16.30;99.90;;;;;;4994294;28;20029;-79
2023/08/02 05:37:15;;;;;;;4.10;2.05;;;16.30;99.90;;;;;;4995111;28;20033;-80
2023/08/02 05:39:40;;;;;;;6.50;3.13;;;16.40;99.90;;;;;;5000532;28;20040;-79
2023/08/02 05:42:06;;;;;;;4.20;2.28;;;16.50;99.90;;;;;;4993054;28;20091;-79
2023/08/02 05:44:31;;;;;;;5.55;2.40;;;16.40;99.90;;;;;;4969893;28;20033;-78
2023/08/02 05:46:57;;;;;;;4.85;2.40;;;16.40;99.90;;;;;;5023735;28;20033;-79
2023/08/02 05:49:23;;;;;;;5.85;1.90;;;16.50;99.90;;;;;;5001361;28;20029;-79
2023/08/02 05:51:49;;;;;;;5.63;2.58;;;16.50;99.90;;;;;;4995066;28;20041;-78
2023/08/02 05:54:16;;;;;;;3.83;2.55;;;16.50;99.90;;;;;;4973623;28;20131;-79
2023/08/02 05:56:42;;;;;;;3.95;2.05;;;16.40;99.90;;;;;;4978179;28;20045;-79
2023/08/02 05:59:08;;;;;;;6.32;2.30;;;16.40;99.90;;;;;;5004440;28;20120;-79
2023/08/02 06:01:33;;;;;;;5.07;2.17;;;16.30;99.90;;;;;;4991634;28;20956;-79
2023/08/02 06:03:59;;;;;;;4.53;2.40;;;16.40;99.90;;;;;;4981810;28;20075;-79
2023/08/02 06:06:25;;;;;;;4.28;2.97;;;16.60;99.90;;;;;;4990803;28;20049;-78
2023/08/02 06:08:50;;;;;;;7.22;3.00;;;16.50;99.90;;;;;;4989404;28;20041;-82
2023/08/02 06:11:16;;;;;;;5.88;2.50;;;16.40;99.90;;;;;;4973867;28;20046;-80
2023/08/02 06:13:41;;;;;;;13.82;3.10;;;16.50;99.90;;;;;;5006733;28;20041;-80
2023/08/02 06:16:07;;;;;;;2.28;1.52;;;16.40;99.90;;;;;;4994017;28;20040;-79
2023/08/02 06:18:32;;;;;;;4.72;2.45;;;16.40;99.90;;;;;;4994992;28;20036;-78
2023/08/02 06:20:58;;;;;;;5.03;2.80;;;16.50;99.90;;;;;;4979683;28;20201;-80
2023/08/02 06:23:23;;;;;;;4.25;2.85;;;16.50;99.90;;;;;;4972439;28;20145;-79
2023/08/02 06:25:49;;;;;;;4.97;2.88;;;16.60;99.90;;;;;;4994676;28;20179;-79
2023/08/02 06:28:14;;;;;;;3.40;1.92;;;16.50;99.90;;;;;;4988440;28;20649;-79
2023/08/02 06:30:40;;;;;;;5.75;2.65;;;16.60;99.90;;;;;;4986326;28;20618;-79
2023/08/02 06:33:06;;;;;;;5.75;2.72;;;16.50;99.90;;;;;;4977173;28;20041;-79
2023/08/02 06:35:31;;;;;;;7.07;2.70;;;16.40;99.90;;;;;;5009876;28;20551;-80
2023/08/02 06:37:57;;;;;;;5.95;2.40;;;16.40;99.90;;;;;;4982003;28;20022;-79
2023/08/02 06:40:22;;;;;;;4.95;1.90;;;16.40;99.90;;;;;;5007870;28;20496;-78
2023/08/02 06:42:48;;;;;;;3.88;2.65;;;16.40;99.90;;;;;;4991861;28;20579;-78
2023/08/02 06:45:13;;;;;;;4.07;2.35;;;16.40;99.90;;;;;;5013145;28;20444;-78
2023/08/02 06:47:39;;;;;;;5.25;2.70;;;16.30;99.90;;;;;;4978492;28;20037;-78
2023/08/02 06:50:05;;;;;;;3.30;2.30;;;16.40;99.90;;;;;;4993329;28;20336;-77
2023/08/02 06:52:30;;;;;;;4.05;2.20;;;16.40;99.90;;;;;;4999251;28;20064;-77
2023/08/02 06:54:56;;;;;;;3.15;2.40;;;16.50;99.90;;;;;;4991566;28;20481;-77
2023/08/02 06:57:23;;;;;;;6.47;2.67;;;16.50;99.90;;;;;;4982811;28;20508;-77
2023/08/02 06:59:52;;;;;;;3.88;2.13;;;16.50;99.90;;;;;;4991907;28;20405;-79
2023/08/02 07:02:18;;;;;;;6.55;2.53;;;16.60;99.90;;;;;;4971058;28;20053;-79
2023/08/02 07:04:43;;;;;;;5.82;2.47;;;16.50;99.90;;;;;;4998397;28;20025;-79
2023/08/02 07:07:09;;;;;;;14.43;3.03;;;16.40;99.90;;;;;;4980838;28;20386;-79
2023/08/02 07:09:35;;;;;;;6.20;2.72;;;16.50;99.90;;;;;;5006981;28;20099;-78
2023/08/02 07:12:00;;;;;;;4.13;2.88;;;16.50;99.90;;;;;;4980809;28;20049;-77
2023/08/02 07:14:26;;;;;;;4.28;2.55;;;16.50;99.90;;;;;;5000887;28;20101;-79
2023/08/02 07:16:51;;;;;;;5.95;2.40;;;16.50;99.90;;;;;;5017908;28;20165;-76
2023/08/02 07:19:17;;;;;;;6.85;2.60;;;16.50;99.90;;;;;;5002031;28;20037;-75
2023/08/02 07:21:42;;;;;;;6.63;2.50;;;16.50;99.90;;;;;;5017935;28;20424;-78
2023/08/02 07:24:08;;;;;;;5.35;2.65;;;16.50;99.90;;;;;;4992846;28;20523;-77
2023/08/02 07:26:34;;;;;;;3.35;2.38;;;16.50;99.90;;;;;;5016998;28;20037;-76
2023/08/02 07:28:59;;;;;;;4.40;2.60;;;16.60;99.90;;;;;;5010330;28;20485;-78
2023/08/02 07:31:25;;;;;;;3.30;2.08;;;16.60;99.90;;;;;;5000446;28;21974;-77
2023/08/02 07:33:50;;;;;;;1.63;1.50;;;16.70;99.90;;;;;;5001842;28;20041;-76
2023/08/02 07:36:17;;;;;;;3.25;1.85;;;16.80;99.90;;;;;;5001055;28;20363;-78
2023/08/02 07:38:43;;;;;;;1.60;1.50;;;16.70;99.90;;;;;;5000864;28;20025;-79
2023/08/02 07:41:09;;;;;;;3.13;1.60;;;16.70;99.90;;;;;;4982269;28;20033;-79
2023/08/02 07:43:35;;;;;;;2.92;1.65;;;16.70;99.90;;;;;;5000425;28;20034;-77
2023/08/02 07:46:00;;;;;;;2.80;1.80;;;16.70;99.90;;;;;;5015635;28;20041;-78
2023/08/02 07:48:26;;;;;;;4.03;1.30;;;16.70;99.90;;;;;;5000739;28;20022;-78
2023/08/02 07:50:51;;;;;;;4.07;1.55;;;16.60;99.90;;;;;;4997289;28;20030;-79
2023/08/02 07:53:17;;;;;;;1.80;1.25;;;16.70;99.90;;;;;;4998858;28;20164;-78
2023/08/02 07:55:42;;;;;;;1.33;1.17;;;16.80;99.90;;;;;;5014244;28;20108;-76
2023/08/02 07:58:08;;;;;;;1.15;1.05;;;16.80;99.90;;;;;;5010185;28;20108;-78
2023/08/02 08:00:33;;;;;;;2.83;1.25;;;16.90;99.90;;;;;;5012221;28;20504;-78
2023/08/02 08:02:59;;;;;;;1.38;1.00;;;17.10;99.90;;;;;;4985583;28;20548;-78
2023/08/02 08:05:28;;;;;;;1.30;1.13;;;17.20;99.90;;;;;;4986401;28;20056;-78
2023/08/02 08:07:53;;;;;;;1.80;1.35;;;17.20;99.90;;;;;;4993140;28;20045;-79
2023/08/02 08:10:19;;;;;;;1.42;1.20;;;17.30;99.90;;;;;;4981857;28;20040;-80
2023/08/02 08:12:44;;;;;;;3.20;1.17;;;17.30;99.90;;;;;;5008102;28;20021;-80
2023/08/02 08:15:10;;;;;;;1.08;0.98;;;17.40;99.90;;;;;;5008898;28;20049;-79
2023/08/02 08:17:35;;;;;;;1.23;1.00;;;17.50;99.90;;;;;;4991641;28;20111;-79
2023/08/02 08:20:03;;;;;;;1.33;0.80;;;17.60;99.90;;;;;;4981475;28;20087;-80
2023/08/02 08:22:29;;;;;;;1.98;1.20;;;17.70;99.90;;;;;;4994085;28;20044;-79
2023/08/02 08:24:55;;;;;;;3.63;1.77;;;17.70;99.90;;;;;;5010368;28;20568;-78
2023/08/02 08:27:21;;;;;;;1.88;0.90;;;17.90;99.90;;;;;;4975920;28;20045;-78
2023/08/02 08:29:46;;;;;;;1.65;1.50;;;17.80;99.90;;;;;;4996457;28;20129;-79
2023/08/02 08:32:12;;;;;;;2.25;1.80;;;17.90;99.90;;;;;;4992449;28;20116;-78
2023/08/02 08:34:37;;;;;;;2.50;1.45;;;18.00;99.90;;;;;;4993033;28;20109;-78
2023/08/02 08:37:03;;;;;;;2.58;1.70;;;18.00;99.90;;;;;;4989451;28;20477;-78
2023/08/02 08:39:29;;;;;;;1.83;1.63;;;18.10;99.90;;;;;;4988545;28;20801;-78
2023/08/02 08:41:59;;;;;;;1.63;1.50;;;18.20;99.90;;;;;;4994966;28;20088;-78
2023/08/02 08:44:25;;;;;;;0.40;0.40;;;18.20;99.90;;;;;;4995176;28;20025;-78
2023/08/02 08:46:51;;;;;;;4.15;1.70;;;18.10;99.90;;;;;;4990184;28;20063;-78
2023/08/02 08:49:16;;;;;;;2.20;1.65;;;18.10;99.90;;;;;;4995569;28;20038;-78
2023/08/02 08:51:42;;;;;;;4.65;1.23;;;18.00;99.90;;;;;;4997595;28;20021;-77
2023/08/02 08:54:20;;;;;;;2.53;1.67;;;18.10;99.90;;;;;;4973366;28;20069;-78
2023/08/02 08:56:46;;;;;;;1.40;1.15;;;18.00;99.90;;;;;;4974181;28;20378;-77
2023/08/02 08:59:11;;;;;;;2.00;1.27;;;18.00;99.90;;;;;;5026429;28;20041;-77
2023/08/02 09:01:37;;;;;;;3.95;1.48;;;18.20;99.90;;;;;;5005672;28;20515;-77
2023/08/02 09:04:03;;;;;;;1.77;1.42;;;18.30;99.90;;;;;;4975047;28;20057;-78
2023/08/02 09:06:29;;;;;;;2.13;1.55;;;18.40;99.90;;;;;;5007565;28;20041;-77
2023/08/02 09:08:54;;;;;;;3.28;2.00;;;18.50;99.90;;;;;;5025227;28;20128;-79
2023/08/02 09:11:21;;;;;;;2.25;1.63;;;18.60;99.90;;;;;;4995072;28;22572;-78
2023/08/02 09:13:46;;;;;;;1.67;1.05;;;18.70;99.90;;;;;;5008332;28;20091;-78
2023/08/02 09:16:13;;;;;;;1.17;1.02;;;18.80;99.90;;;;;;4982582;28;20029;-78
2023/08/02 09:18:43;;;;;;;0.95;0.90;;;18.90;99.90;;;;;;5007208;28;20060;-78
2023/08/02 09:21:12;;;;;;;0.93;0.88;;;19.00;99.90;;;;;;4989933;28;20033;-78
2023/08/02 09:23:37;;;;;;;1.85;1.13;;;19.10;99.90;;;;;;4977606;28;20465;-78
2023/08/02 09:26:19;;;;;;;0.88;0.80;;;19.20;99.90;;;;;;4984391;28;20044;-77
2023/08/02 09:29:00;;;;;;;1.98;1.38;;;19.10;99.90;;;;;;5007908;28;20108;-78
2023/08/02 09:31:29;;;;;;;2.17;1.00;;;19.30;99.90;;;;;;4992563;28;20635;-78
2023/08/02 09:33:55;;;;;;;2.38;0.98;;;19.40;99.90;;;;;;4987904;28;20040;-78
2023/08/02 09:36:28;;;;;;;0.95;0.88;;;19.50;99.90;;;;;;4991664;28;20482;-78
2023/08/02 09:39:06;;;;;;;0.70;0.70;;;19.60;99.90;;;;;;5007752;28;20029;-78
2023/08/02 09:41:32;;;;;;;1.38;0.85;;;19.90;99.90;;;;;;5008600;28;20130;-79
2023/08/02 09:43:57;;;;;;;1.90;1.05;;;19.80;99.90;;;;;;4994547;28;20116;-77
2023/08/02 09:46:30;;;;;;;0.90;0.90;;;19.90;99.90;;;;;;4990937;28;20041;-77
2023/08/02 09:48:59;;;;;;;1.17;0.95;;;20.10;99.90;;;;;;4992732;28;20129;-77
2023/08/02 09:51:41;;;;;;;0.55;0.50;;;20.30;99.90;;;;;;4991471;28;20051;-77
2023/08/02 09:54:10;;;;;;;1.00;0.70;;;20.60;99.90;;;;;;4987836;28;20788;-77
2023/08/02 09:56:36;;;;;;;2.40;0.90;;;20.70;99.90;;;;;;4978465;28;20035;-78
2023/08/02 09:59:03;;;;;;;0.70;0.70;;;20.70;99.90;;;;;;4986795;28;20551;-77
2023/08/02 10:01:29;;;;;;;0.98;0.70;;;21.00;99.90;;;;;;4974374;28;20037;-78
2023/08/02 10:03:55;;;;;;;2.00;0.60;;;21.10;99.90;;;;;;5024454;28;20057;-78
2023/08/02 10:06:23;;;;;;;1.30;0.80;;;21.20;99.90;;;;;;4975092;28;21966;-79
2023/08/02 10:08:48;;;;;;;0.75;0.32;;;21.40;99.90;;;;;;4992180;28;20041;-78
2023/08/02 10:11:14;;;;;;;1.55;0.70;;;21.40;99.90;;;;;;4986341;28;20034;-79
2023/08/02 10:13:40;;;;;;;2.08;0.60;;;21.50;99.90;;;;;;4979031;28;20036;-78
2023/08/02 10:16:05;;;;;;;0.98;0.60;;;21.40;99.90;;;;;;4977659;28;20037;-79
2023/08/02 10:18:32;;;;;;;0.47;0.43;;;21.60;99.90;;;;;;4655736;28;10000220;-79
2023/08/02 10:21:00;;;;;;;1.25;0.50;;;21.50;99.90;;;;;;4989659;28;20128;-78
2023/08/02 10:23:26;;;;;;;2.65;0.70;;;21.50;99.90;;;;;;4971493;28;20034;-78
2023/08/02 10:25:52;;;;;;;2.75;0.50;;;21.50;99.90;;;;;;4991642;28;20123;-78
2023/08/02 10:28:17;;;;;;;1.70;0.50;;;21.50;99.90;;;;;;4987177;28;20068;-78
2023/08/02 10:30:43;;;;;;;2.28;0.65;;;21.50;99.90;;;;;;4984780;28;20029;-79
2023/08/02 10:33:13;;;;;;;0.63;0.60;;;21.70;99.90;;;;;;5004423;28;20079;-78
2023/08/02 10:35:58;;;;;;;0.93;0.47;;;21.50;99.90;;;;;;4973596;28;20037;-78
2023/08/02 10:38:39;;;;;;;0.52;0.40;;;21.40;99.90;;;;;;4990258;28;20029;-78
2023/08/02 10:41:09;;;;;;;0.40;0.40;;;21.40;99.90;;;;;;5023410;28;20077;-78
2023/08/02 10:43:57;;;;;;;0.40;0.30;;;21.40;99.90;;;;;;4987508;28;20075;-78
2023/08/02 10:46:32;;;;;;;0.57;0.40;;;21.40;99.90;;;;;;5023524;28;20034;-78
2023/08/02 10:49:09;;;;;;;1.98;0.40;;;21.40;99.90;;;;;;5003456;28;20037;-78
2023/08/02 10:51:42;;;;;;;0.43;0.43;;;21.70;99.90;;;;;;5023789;28;20034;-79
2023/08/02 10:54:19;;;;;;;0.57;0.32;;;21.80;99.90;;;;;;4978759;28;20038;-79
2023/08/02 10:56:58;;;;;;;0.40;0.35;;;22.00;99.90;;;;;;5000763;28;20033;-78
2023/08/02 10:59:24;;;;;;;0.85;0.30;;;22.00;99.90;;;;;;5010261;28;20030;-78
2023/08/02 11:02:03;;;;;;;2.30;0.45;;;22.20;99.90;;;;;;5009205;28;20029;-78
2023/08/02 11:04:30;;;;;;;1.38;0.40;;;22.50;99.90;;;;;;5008186;28;20038;-78
2023/08/02 11:07:16;;;;;;;0.25;0.20;;;22.80;99.90;;;;;;4978283;28;20038;-78
2023/08/02 11:09:41;;;;;;;0.88;0.40;;;22.90;99.90;;;;;;4975110;28;20068;-78
2023/08/02 11:12:16;;;;;;;7.95;0.50;;;23.10;99.90;;;;;;5002991;28;20069;-79
2023/08/02 11:14:43;;;;;;;5.72;1.20;;;23.30;99.90;;;;;;5006944;28;20120;-78
2023/08/02 11:17:09;;;;;;;1.08;0.43;;;23.40;99.90;;;;;;5005967;28;20095;-78
2023/08/02 11:19:37;;;;;;;0.22;0.20;;;23.50;99.90;;;;;;5005011;28;20488;-79
2023/08/02 11:22:03;;;;;;;1.25;0.30;;;23.40;99.90;;;;;;4992063;28;20436;-78
2023/08/02 11:24:33;;;;;;;2.63;0.40;;;23.60;99.90;;;;;;4994942;28;20029;-78
2023/08/02 11:26:59;;;;;;;1.48;0.38;;;24.20;99.90;;;;;;4986664;28;20053;-76
2023/08/02 11:29:25;;;;;;;0.30;0.30;;;24.40;99.90;;;;;;5011720;28;20030;-79
2023/08/02 11:31:54;;;;;;;0.93;0.40;;;24.30;99.90;;;;;;4996015;28;20040;-78
2023/08/02 11:34:19;;;;;;;3.28;0.30;;;24.90;99.90;;;;;;4996492;28;20405;-78
2023/08/02 11:36:46;;;;;;;0.10;0.10;;;25.50;99.90;;;;;;4979337;28;20095;-79
2023/08/02 11:39:15;;;;;;;2.95;0.20;;;25.40;99.90;;;;;;4978992;28;20041;-79
2023/08/02 11:41:41;;;;;;;0.45;0.22;;;25.30;99.90;;;;;;4977788;28;20033;-79
2023/08/02 11:44:16;;;;;;;0.93;0.60;;;25.30;99.90;;;;;;4991875;28;20041;-79
2023/08/02 11:46:42;;;;;;;0.20;0.20;;;25.90;99.90;;;;;;5025010;28;20041;-79
2023/08/02 11:49:08;;;;;;;0.30;0.20;;;26.10;99.90;;;;;;4995616;28;20055;-79
2023/08/02 11:51:39;;;;;;;0.20;0.20;;;26.40;99.90;;;;;;4998446;28;20030;-80
2023/08/02 11:54:05;;;;;;;0.20;0.20;;;26.50;99.90;;;;;;4975010;28;20041;-79
2023/08/02 11:56:30;;;;;;;0.32;0.20;;;26.40;99.90;;;;;;5008471;28;20029;-79
2023/08/02 11:58:56;;;;;;;0.30;0.30;;;26.30;99.90;;;;;;5004220;28;20056;-79
2023/08/02 12:01:21;;;;;;;0.40;0.30;;;26.20;99.90;;;;;;4988278;28;20022;-80
2023/08/02 12:03:56;;;;;;;0.30;0.30;;;25.50;99.90;;;;;;4990883;28;20048;-80
2023/08/02 12:06:23;;;;;;;0.73;0.43;;;25.10;99.90;;;;;;5007080;28;20040;-80
2023/08/02 12:08:53;;;;;;;0.30;0.30;;;24.80;99.90;;;;;;5003732;28;20125;-80
2023/08/02 12:11:19;;;;;;;4.38;0.60;;;24.40;99.90;;;;;;4974649;28;20076;-80
2023/08/02 12:13:45;;;;;;;0.17;0.17;;;24.40;99.90;;;;;;4991809;28;20021;-80
2023/08/02 12:16:13;;;;;;;0.20;0.20;;;24.30;99.90;;;;;;4995266;28;20117;-79
2023/08/02 12:18:57;;;;;;;0.80;0.20;;;24.30;99.90;;;;;;5023449;28;20501;-80
2023/08/02 12:21:23;;;;;;;0.52;0.28;;;24.20;99.90;;;;;;4975797;28;20029;-80
2023/08/02 12:23:49;;;;;;;0.55;0.30;;;24.20;99.90;;;;;;5004520;28;20030;-80
2023/08/02 12:26:34;;;;;;;0.30;0.20;;;24.50;99.90;;;;;;4990923;28;20673;-80
2023/08/02 12:29:01;;;;;;;0.22;0.22;;;24.70;99.90;;;;;;4988788;28;20025;-80
2023/08/02 12:31:27;;;;;;;0.52;0.25;;;24.60;99.90;;;;;;5004361;28;20034;-80
2023/08/02 12:33:54;;;;;;;0.55;0.30;;;24.50;99.90;;;;;;4978164;28;20051;-80
2023/08/02 12:36:29;;;;;;;0.30;0.20;;;24.50;99.90;;;;;;5024390;28;20528;-80
2023/08/02 12:38:58;;;;;;;1.02;0.22;;;24.40;99.90;;;;;;4973765;28;20083;-80
2023/08/02 12:41:24;;;;;;;0.70;0.20;;;24.50;99.90;;;;;;4988971;28;20045;-80
2023/08/02 12:43:50;;;;;;;2.75;0.20;;;24.40;99.90;;;;;;4989668;28;20664;-80